Time;durP1;ratioP1;P1;durP2;ratioP2;P2;SDS_P1;SDS_P2;PMS_P1;PMS_P2;Temp;Humidity;BMP_temperature;BMP_pressure;BME280_temperature;BME280_humidity;BME280_pressure;Samples;Min_cycle;Max_cycle;Signal;HPM_P1;HPM_P2
2023/01/09 00:00:17;;;;;;;0.30;0.30;;;5.70;99.90;;;;;;4400932;32;20070;-72
2023/01/09 00:02:44;;;;;;;0.95;0.93;;;5.60;99.90;;;;;;4402057;32;20172;-72
2023/01/09 00:05:12;;;;;;;0.32;0.32;;;5.60;99.90;;;;;;4400639;32;20090;-72
2023/01/09 00:07:37;;;;;;;0.45;0.45;;;5.60;99.90;;;;;;4399368;32;20093;-72
2023/01/09 00:10:04;;;;;;;1.30;0.77;;;5.60;99.90;;;;;;4393128;32;20085;-72
2023/01/09 00:12:30;;;;;;;0.57;0.57;;;5.60;99.90;;;;;;4385272;32;20065;-72
2023/01/09 00:14:55;;;;;;;5.47;1.70;;;5.60;99.90;;;;;;4388004;32;20083;-72
2023/01/09 00:17:21;;;;;;;0.40;0.40;;;5.60;99.90;;;;;;4398082;32;20098;-72
2023/01/09 00:19:46;;;;;;;0.45;0.45;;;5.50;99.90;;;;;;4400712;32;20081;-72
2023/01/09 00:22:12;;;;;;;0.75;0.50;;;5.50;99.90;;;;;;4400822;32;20518;-72
2023/01/09 00:24:37;;;;;;;0.30;0.30;;;5.50;99.90;;;;;;4399779;32;20427;-72
2023/01/09 00:27:04;;;;;;;1.98;0.77;;;5.40;99.90;;;;;;4401289;32;20085;-72
2023/01/09 00:29:29;;;;;;;0.62;0.62;;;5.40;99.90;;;;;;4399710;32;20120;-72
2023/01/09 00:31:55;;;;;;;0.57;0.57;;;5.30;99.90;;;;;;4398109;32;20173;-72
2023/01/09 00:34:22;;;;;;;0.50;0.50;;;5.40;99.90;;;;;;4402801;32;20066;-72
2023/01/09 00:36:47;;;;;;;3.83;0.70;;;5.40;99.90;;;;;;4398624;32;20109;-72
2023/01/09 00:39:13;;;;;;;1.65;0.93;;;5.30;99.90;;;;;;4401365;32;20085;-72
2023/01/09 00:41:42;;;;;;;0.80;0.80;;;5.30;99.90;;;;;;4389063;32;20484;-72
2023/01/09 00:44:30;;;;;;;0.40;0.40;;;5.20;99.90;;;;;;4384281;32;20077;-72
2023/01/09 00:47:00;;;;;;;0.60;0.60;;;5.20;99.90;;;;;;4391478;32;20092;-72
2023/01/09 00:49:29;;;;;;;0.45;0.45;;;5.10;99.90;;;;;;4401365;32;20450;-72
2023/01/09 00:51:55;;;;;;;0.65;0.65;;;5.10;99.90;;;;;;4400841;32;20139;-72
2023/01/09 00:54:21;;;;;;;1.02;0.98;;;5.00;99.90;;;;;;4396391;32;20569;-72
2023/01/09 00:56:48;;;;;;;0.75;0.75;;;5.00;99.90;;;;;;4398255;32;20109;-72
2023/01/09 00:59:14;;;;;;;0.37;0.37;;;5.00;99.90;;;;;;4402398;32;20070;-72
2023/01/09 01:01:39;;;;;;;0.50;0.50;;;5.00;99.90;;;;;;4396309;32;20081;-72
2023/01/09 01:07:37;;;;;;;0.60;0.60;;;5.00;99.90;;;;;;4403872;32;20765;-73
2023/01/09 01:07:50;;;;;;;4.07;0.85;;;5.10;99.90;;;;;;4392958;32;20090;-72
2023/01/09 01:09:36;;;;;;;0.45;0.45;;;5.00;99.90;;;;;;4390440;32;20078;-72
2023/01/09 01:12:05;;;;;;;0.47;0.47;;;5.00;99.90;;;;;;4384145;32;20566;-72
2023/01/09 01:14:32;;;;;;;0.85;0.85;;;5.10;99.90;;;;;;4384917;32;20106;-73
2023/01/09 01:16:58;;;;;;;0.60;0.60;;;5.00;99.90;;;;;;4398225;32;20083;-72
2023/01/09 01:19:23;;;;;;;10.88;1.80;;;5.00;99.90;;;;;;4398012;32;20074;-72
2023/01/09 01:21:49;;;;;;;0.70;0.70;;;5.00;99.90;;;;;;4399738;32;20085;-72
2023/01/09 01:24:18;;;;;;;3.62;1.15;;;5.00;99.90;;;;;;4399275;32;20410;-72
2023/01/09 01:26:44;;;;;;;0.50;0.50;;;5.00;99.90;;;;;;4399728;32;20182;-72
2023/01/09 01:29:09;;;;;;;1.12;1.02;;;5.00;99.90;;;;;;4401582;32;20117;-72
2023/01/09 01:31:35;;;;;;;0.50;0.50;;;5.00;99.90;;;;;;4400381;32;20077;-72
2023/01/09 01:34:00;;;;;;;1.25;1.10;;;4.90;99.90;;;;;;4398665;32;20078;-73
2023/01/09 01:36:26;;;;;;;0.45;0.45;;;4.90;99.90;;;;;;4400095;32;20138;-73
2023/01/09 01:38:51;;;;;;;0.40;0.40;;;4.80;99.90;;;;;;4398869;32;20077;-73
2023/01/09 01:41:28;;;;;;;0.50;0.50;;;4.90;99.90;;;;;;4386709;32;20222;-73
2023/01/09 01:44:04;;;;;;;0.88;0.85;;;4.90;99.90;;;;;;4384844;32;20600;-73
2023/01/09 01:46:31;;;;;;;0.47;0.47;;;4.80;99.90;;;;;;4396234;32;20600;-73
2023/01/09 01:49:06;;;;;;;1.00;1.00;;;4.80;99.90;;;;;;4398835;32;20093;-72
2023/01/09 01:51:36;;;;;;;1.23;1.12;;;4.80;99.90;;;;;;4400862;32;20120;-73
2023/01/09 01:54:06;;;;;;;0.40;0.40;;;4.80;99.90;;;;;;4400242;32;20079;-73
2023/01/09 01:56:38;;;;;;;0.98;0.95;;;4.70;99.90;;;;;;4401935;32;20566;-73
2023/01/09 01:59:17;;;;;;;3.03;1.75;;;4.70;99.90;;;;;;4402606;32;20079;-73
2023/01/09 02:01:46;;;;;;;0.73;0.73;;;4.80;99.90;;;;;;4401803;32;20684;-73
2023/01/09 02:04:12;;;;;;;4.12;1.55;;;4.80;99.90;;;;;;4402231;32;20128;-73
2023/01/09 02:06:38;;;;;;;1.08;0.98;;;4.80;99.90;;;;;;4402714;32;20872;-73
2023/01/09 02:09:05;;;;;;;0.68;0.68;;;4.90;99.90;;;;;;4402593;32;20077;-73
2023/01/09 02:11:32;;;;;;;0.82;0.82;;;4.80;99.90;;;;;;4389372;32;20065;-73
2023/01/09 02:13:59;;;;;;;3.60;1.08;;;4.80;99.90;;;;;;4387551;32;20065;-73
2023/01/09 02:16:32;;;;;;;1.00;0.80;;;4.80;99.90;;;;;;4398536;32;20132;-73
2023/01/09 02:19:16;;;;;;;4.07;1.33;;;4.70;99.90;;;;;;4404305;32;20078;-72
2023/01/09 02:22:01;;;;;;;0.95;0.80;;;4.70;99.90;;;;;;4401318;32;20117;-73
2023/01/09 02:24:58;;;;;;;0.60;0.60;;;4.70;99.90;;;;;;4399780;32;20085;-73
2023/01/09 02:27:57;;;;;;;1.40;0.80;;;4.80;99.90;;;;;;4394023;32;20121;-73
2023/01/09 02:30:45;;;;;;;0.90;0.90;;;4.80;99.90;;;;;;4402128;32;20557;-73
2023/01/09 02:33:38;;;;;;;0.95;0.95;;;4.80;99.90;;;;;;4403441;32;20093;-73
2023/01/09 02:36:19;;;;;;;0.70;0.70;;;4.70;99.90;;;;;;4394890;32;20089;-72
2023/01/09 02:39:15;;;;;;;0.75;0.75;;;4.80;99.90;;;;;;4400842;32;20086;-73
2023/01/09 02:42:02;;;;;;;0.82;0.82;;;4.80;99.90;;;;;;4378501;32;20141;-73
2023/01/09 02:44:31;;;;;;;2.53;0.88;;;4.80;99.90;;;;;;4390581;32;20570;-73
2023/01/09 02:47:02;;;;;;;0.50;0.50;;;4.70;99.90;;;;;;4402660;32;20081;-73
2023/01/09 02:49:28;;;;;;;1.80;1.25;;;4.80;99.90;;;;;;4399130;32;20094;-73
2023/01/09 02:52:11;;;;;;;3.75;1.33;;;4.80;99.90;;;;;;4401282;32;20066;-73
2023/01/09 02:54:53;;;;;;;0.50;0.50;;;4.80;99.90;;;;;;4399940;32;20086;-73
2023/01/09 02:57:43;;;;;;;0.52;0.52;;;4.90;99.90;;;;;;4401799;32;20074;-73
2023/01/09 03:00:31;;;;;;;0.70;0.70;;;4.80;99.90;;;;;;4402039;32;20094;-73
2023/01/09 03:03:19;;;;;;;0.70;0.70;;;4.70;99.90;;;;;;4401660;32;20537;-73
2023/01/09 03:06:05;;;;;;;0.68;0.68;;;4.70;99.90;;;;;;4401703;32;20173;-72
2023/01/09 03:08:37;;;;;;;0.70;0.70;;;4.70;99.90;;;;;;4402663;32;20160;-73
2023/01/09 03:11:06;;;;;;;1.15;1.05;;;4.60;99.90;;;;;;4389475;32;20082;-73
2023/01/09 03:13:44;;;;;;;1.37;1.08;;;4.70;99.90;;;;;;4384076;32;20053;-73
2023/01/09 03:16:13;;;;;;;0.80;0.80;;;4.60;99.90;;;;;;4397813;32;20584;-73
2023/01/09 03:18:40;;;;;;;0.65;0.65;;;4.60;99.90;;;;;;4399694;32;21049;-73
2023/01/09 03:21:07;;;;;;;0.80;0.80;;;4.60;99.90;;;;;;4398031;32;20438;-73
2023/01/09 03:23:55;;;;;;;0.60;0.60;;;4.70;99.90;;;;;;4400781;32;20119;-73
2023/01/09 03:26:21;;;;;;;2.70;1.15;;;4.60;99.90;;;;;;4391907;32;20093;-73
2023/01/09 03:28:47;;;;;;;0.50;0.50;;;4.70;99.90;;;;;;4404237;32;20081;-73
2023/01/09 03:31:13;;;;;;;0.60;0.60;;;4.70;99.90;;;;;;4399188;32;20122;-73
2023/01/09 03:33:39;;;;;;;0.50;0.50;;;4.70;99.90;;;;;;4398900;32;20073;-73
2023/01/09 03:36:05;;;;;;;0.82;0.80;;;4.70;99.90;;;;;;4402755;32;20164;-73
2023/01/09 03:38:30;;;;;;;4.57;1.95;;;4.80;99.90;;;;;;4399735;32;21243;-73
2023/01/09 03:40:56;;;;;;;0.60;0.60;;;4.90;99.90;;;;;;4391781;32;20156;-73
2023/01/09 03:43:21;;;;;;;0.75;0.70;;;4.90;99.90;;;;;;4387591;32;20472;-73
2023/01/09 03:45:46;;;;;;;0.70;0.70;;;5.00;99.90;;;;;;4394564;32;20130;-73
2023/01/09 03:48:12;;;;;;;3.35;1.05;;;5.00;99.90;;;;;;4401381;32;20101;-73
2023/01/09 03:50:38;;;;;;;2.17;1.50;;;5.00;99.90;;;;;;4398228;32;20144;-73
2023/01/09 03:53:03;;;;;;;0.60;0.60;;;5.10;99.90;;;;;;4398147;32;20057;-73
2023/01/09 03:55:29;;;;;;;0.35;0.35;;;5.00;99.90;;;;;;4399174;32;20077;-73
2023/01/09 03:57:54;;;;;;;0.50;0.50;;;5.10;99.90;;;;;;4399418;32;20095;-73
2023/01/09 04:00:20;;;;;;;4.12;1.33;;;5.10;99.90;;;;;;4398936;32;20074;-73
2023/01/09 04:02:46;;;;;;;0.77;0.77;;;5.10;99.90;;;;;;4401062;32;20057;-73
2023/01/09 04:05:12;;;;;;;0.80;0.80;;;5.00;99.90;;;;;;4401963;32;20066;-73
2023/01/09 04:07:38;;;;;;;2.08;0.90;;;5.00;99.90;;;;;;4399539;32;20113;-73
2023/01/09 04:10:05;;;;;;;0.50;0.50;;;5.00;99.90;;;;;;4394576;32;20590;-73
2023/01/09 04:12:30;;;;;;;0.95;0.93;;;5.10;99.90;;;;;;4383252;32;20117;-73
2023/01/09 04:14:56;;;;;;;0.80;0.80;;;5.10;99.90;;;;;;4389874;32;20477;-73
2023/01/09 04:17:21;;;;;;;0.62;0.60;;;5.20;99.90;;;;;;4400185;32;20076;-73
2023/01/09 04:19:47;;;;;;;6.43;1.73;;;5.30;99.90;;;;;;4398310;32;21308;-73
2023/01/09 04:22:12;;;;;;;16.65;1.45;;;5.30;99.90;;;;;;4398064;32;20087;-73
2023/01/09 04:24:38;;;;;;;1.23;1.15;;;5.30;99.90;;;;;;4402060;32;20443;-72
2023/01/09 04:27:03;;;;;;;1.12;0.65;;;5.20;99.90;;;;;;4401397;32;20062;-72
2023/01/09 04:29:29;;;;;;;0.88;0.88;;;5.20;99.90;;;;;;4399422;32;20058;-72
2023/01/09 04:31:54;;;;;;;0.75;0.75;;;5.30;99.90;;;;;;4397742;32;20065;-73
2023/01/09 04:34:24;;;;;;;0.62;0.62;;;5.30;99.90;;;;;;4402952;32;20439;-73
2023/01/09 04:36:51;;;;;;;0.90;0.90;;;5.40;99.90;;;;;;4401986;32;20122;-72
2023/01/09 04:39:16;;;;;;;0.55;0.55;;;5.40;99.90;;;;;;4397818;32;20133;-72
2023/01/09 04:41:49;;;;;;;2.08;0.75;;;5.40;99.90;;;;;;4386310;32;20526;-72
2023/01/09 04:44:17;;;;;;;0.65;0.65;;;5.30;99.90;;;;;;4387592;32;20118;-72
2023/01/09 04:46:43;;;;;;;0.73;0.70;;;5.30;99.90;;;;;;4400643;32;20117;-72
2023/01/09 04:49:08;;;;;;;0.50;0.50;;;5.30;99.90;;;;;;4398523;32;20168;-72
2023/01/09 04:51:34;;;;;;;0.70;0.70;;;5.30;99.90;;;;;;4398941;32;20518;-72
2023/01/09 04:54:00;;;;;;;0.73;0.73;;;5.40;99.90;;;;;;4399528;32;20089;-72
2023/01/09 04:56:25;;;;;;;1.00;1.00;;;5.30;99.90;;;;;;4398461;32;20110;-72
2023/01/09 04:58:51;;;;;;;1.08;0.82;;;5.30;99.90;;;;;;4399260;32;20125;-72
2023/01/09 05:01:16;;;;;;;4.47;1.15;;;5.30;99.90;;;;;;4398878;32;20527;-72
2023/01/09 05:03:42;;;;;;;0.85;0.85;;;5.30;99.90;;;;;;4399747;32;20058;-72
2023/01/09 05:06:07;;;;;;;1.83;1.25;;;5.40;99.90;;;;;;4400909;32;20069;-72
2023/01/09 05:08:32;;;;;;;0.95;0.95;;;5.30;99.90;;;;;;4400681;32;20069;-72
2023/01/09 05:10:59;;;;;;;1.05;0.93;;;5.40;99.90;;;;;;4389863;32;20054;-72
2023/01/09 05:13:24;;;;;;;0.57;0.57;;;5.40;99.90;;;;;;4386096;32;20114;-72
2023/01/09 05:15:50;;;;;;;1.00;0.85;;;5.40;99.90;;;;;;4395154;32;20100;-72
2023/01/09 05:18:15;;;;;;;2.60;1.25;;;5.40;99.90;;;;;;4398629;32;20066;-72
2023/01/09 05:20:41;;;;;;;1.30;1.20;;;5.40;99.90;;;;;;4397791;32;20128;-72
2023/01/09 05:23:06;;;;;;;0.60;0.60;;;5.40;99.90;;;;;;4369538;32;20155;-72
2023/01/09 05:25:32;;;;;;;1.73;1.08;;;5.40;99.90;;;;;;4364870;32;20402;-72
2023/01/09 05:27:58;;;;;;;0.80;0.80;;;5.50;99.90;;;;;;4363517;32;20069;-72
2023/01/09 05:30:24;;;;;;;0.60;0.60;;;5.60;99.90;;;;;;4364896;32;20671;-72
2023/01/09 05:32:49;;;;;;;0.50;0.50;;;5.60;99.90;;;;;;4365844;32;20058;-72
2023/01/09 05:35:15;;;;;;;2.78;1.05;;;5.60;99.90;;;;;;4361209;32;20070;-74
2023/01/09 05:37:40;;;;;;;7.10;2.17;;;5.50;99.90;;;;;;4387402;32;20144;-73
2023/01/09 05:40:06;;;;;;;0.60;0.60;;;5.40;99.90;;;;;;4397001;32;20094;-73
2023/01/09 05:42:31;;;;;;;0.50;0.50;;;5.40;99.90;;;;;;4384922;32;20877;-74
2023/01/09 05:44:57;;;;;;;1.05;0.98;;;5.40;99.90;;;;;;4393937;32;20057;-73
2023/01/09 05:47:22;;;;;;;2.90;1.12;;;5.30;99.90;;;;;;4399156;32;20062;-74
2023/01/09 05:49:48;;;;;;;1.35;1.00;;;5.30;99.90;;;;;;4405725;32;20077;-74
2023/01/09 05:52:13;;;;;;;1.37;1.12;;;5.30;99.90;;;;;;4391361;32;20097;-74
2023/01/09 05:54:39;;;;;;;1.27;1.17;;;5.40;99.90;;;;;;4358979;32;20277;-72
2023/01/09 05:57:04;;;;;;;5.47;1.48;;;5.40;99.90;;;;;;4375843;32;20545;-72
2023/01/09 05:59:30;;;;;;;1.27;0.90;;;5.40;99.90;;;;;;4400410;32;20466;-74
2023/01/09 06:01:55;;;;;;;0.75;0.75;;;5.40;99.90;;;;;;4397245;32;20093;-72
2023/01/09 06:04:21;;;;;;;0.60;0.60;;;5.40;99.90;;;;;;4372605;32;20390;-72
2023/01/09 06:06:46;;;;;;;2.22;1.67;;;5.40;99.90;;;;;;4369603;32;20663;-72
2023/01/09 06:09:12;;;;;;;1.12;1.00;;;5.40;99.90;;;;;;4355723;32;20609;-74
2023/01/09 06:11:37;;;;;;;0.60;0.60;;;5.40;99.90;;;;;;4353906;32;20212;-72
2023/01/09 06:14:04;;;;;;;5.18;1.85;;;5.50;99.90;;;;;;4340382;32;20374;-73
2023/01/09 06:16:30;;;;;;;1.30;1.10;;;5.50;99.90;;;;;;4357131;32;20096;-72
2023/01/09 06:18:56;;;;;;;0.75;0.75;;;5.50;99.90;;;;;;4313610;32;20167;-72
2023/01/09 06:21:22;;;;;;;1.30;0.90;;;5.60;99.90;;;;;;4326976;32;20607;-72
2023/01/09 06:23:47;;;;;;;0.65;0.65;;;5.60;99.90;;;;;;4299182;32;20205;-72
2023/01/09 06:26:13;;;;;;;0.93;0.77;;;5.50;99.90;;;;;;4306137;32;21009;-72
2023/01/09 06:28:38;;;;;;;2.20;1.10;;;5.60;99.90;;;;;;4319024;32;20458;-72
2023/01/09 06:31:04;;;;;;;5.07;1.65;;;5.60;99.90;;;;;;4294692;32;20110;-73
2023/01/09 06:33:31;;;;;;;0.80;0.80;;;5.60;99.90;;;;;;4324988;32;20339;-73
2023/01/09 06:35:58;;;;;;;0.55;0.55;;;5.60;99.90;;;;;;4332789;32;20303;-73
2023/01/09 06:38:23;;;;;;;1.35;1.25;;;5.70;99.90;;;;;;4344742;32;20287;-73
2023/01/09 06:40:49;;;;;;;0.80;0.80;;;5.70;99.90;;;;;;4344647;32;20260;-73
2023/01/09 06:43:15;;;;;;;0.50;0.50;;;5.70;99.90;;;;;;4356390;32;20446;-73
2023/01/09 06:45:42;;;;;;;7.93;1.60;;;5.70;99.90;;;;;;4368971;32;20066;-74
2023/01/09 06:48:08;;;;;;;0.98;0.98;;;5.70;99.90;;;;;;4379775;32;20082;-73
2023/01/09 06:50:34;;;;;;;1.10;1.00;;;5.80;99.90;;;;;;4369023;32;20233;-73
2023/01/09 06:52:59;;;;;;;2.15;1.10;;;5.80;99.90;;;;;;4368286;32;20683;-73
2023/01/09 06:55:25;;;;;;;0.70;0.70;;;5.80;99.90;;;;;;4368074;32;20073;-73
2023/01/09 06:57:51;;;;;;;0.47;0.47;;;5.70;99.90;;;;;;4367802;32;20606;-73
2023/01/09 07:00:17;;;;;;;1.15;0.75;;;5.70;99.90;;;;;;4339202;32;20704;-75
2023/01/09 07:02:42;;;;;;;1.65;1.45;;;5.80;99.90;;;;;;4330444;32;21039;-72
2023/01/09 07:05:10;;;;;;;0.62;0.62;;;5.80;99.90;;;;;;4321764;32;20922;-73
2023/01/09 07:07:37;;;;;;;3.45;1.35;;;5.80;99.90;;;;;;4334085;32;21216;-73
2023/01/09 07:10:02;;;;;;;3.75;1.35;;;5.80;99.90;;;;;;4340851;32;20130;-72
2023/01/09 07:12:28;;;;;;;0.65;0.52;;;5.80;99.90;;;;;;4336301;32;20955;-72
2023/01/09 07:14:54;;;;;;;0.80;0.80;;;5.90;99.90;;;;;;4334003;32;20189;-73
2023/01/09 07:17:20;;;;;;;1.20;1.12;;;5.90;99.90;;;;;;4347911;32;20099;-73
2023/01/09 07:19:45;;;;;;;1.15;0.77;;;5.90;99.90;;;;;;4336905;32;20803;-73
2023/01/09 07:22:11;;;;;;;0.50;0.50;;;5.80;99.90;;;;;;4330157;32;20430;-73
2023/01/09 07:24:36;;;;;;;2.03;1.50;;;5.80;99.90;;;;;;4339877;32;20733;-71
2023/01/09 07:27:02;;;;;;;0.70;0.70;;;5.80;99.90;;;;;;4339019;32;20090;-72
2023/01/09 07:29:28;;;;;;;10.95;3.33;;;5.70;99.90;;;;;;4328755;32;20313;-74
2023/01/09 07:31:54;;;;;;;5.07;1.20;;;5.80;99.90;;;;;;4327849;32;107053;-72
2023/01/09 07:34:19;;;;;;;0.80;0.62;;;5.80;99.90;;;;;;4329712;32;20245;-72
2023/01/09 07:36:45;;;;;;;8.38;1.30;;;5.80;99.90;;;;;;4342917;32;20512;-73
2023/01/09 07:39:12;;;;;;;1.42;0.88;;;5.70;99.90;;;;;;4350637;32;21423;-73
2023/01/09 07:41:38;;;;;;;2.28;1.20;;;5.70;99.90;;;;;;4347858;32;20621;-74
2023/01/09 07:44:03;;;;;;;0.50;0.50;;;5.80;99.90;;;;;;4348036;32;20090;-74
2023/01/09 07:46:29;;;;;;;1.05;1.00;;;5.70;99.90;;;;;;4343374;32;20070;-73
2023/01/09 07:48:55;;;;;;;0.55;0.55;;;5.70;99.90;;;;;;4338079;32;20301;-73
2023/01/09 07:51:20;;;;;;;0.90;0.90;;;5.70;99.90;;;;;;4340532;32;20176;-75
2023/01/09 07:53:46;;;;;;;0.95;0.95;;;5.70;99.90;;;;;;4345532;32;20097;-73
2023/01/09 07:56:11;;;;;;;0.75;0.75;;;5.60;99.90;;;;;;4357494;32;20086;-73
2023/01/09 07:58:37;;;;;;;0.75;0.75;;;5.70;99.90;;;;;;4341582;32;20747;-76
2023/01/09 08:01:03;;;;;;;3.33;0.80;;;5.70;99.90;;;;;;4347644;32;20527;-71
2023/01/09 08:03:28;;;;;;;1.23;1.12;;;5.80;99.90;;;;;;4339777;32;20935;-74
2023/01/09 08:05:54;;;;;;;0.62;0.62;;;5.80;99.90;;;;;;4345493;32;20110;-73
2023/01/09 08:08:19;;;;;;;1.02;1.00;;;5.80;99.90;;;;;;4341022;32;20142;-72
2023/01/09 08:10:45;;;;;;;0.68;0.68;;;5.80;99.90;;;;;;4343284;32;20420;-72
2023/01/09 08:13:10;;;;;;;1.05;0.85;;;5.80;99.90;;;;;;4349386;32;20090;-72
2023/01/09 08:15:36;;;;;;;0.85;0.85;;;5.80;99.90;;;;;;4347701;32;20196;-72
2023/01/09 08:18:01;;;;;;;1.08;0.80;;;5.80;99.90;;;;;;4340649;32;20391;-72
2023/01/09 08:20:27;;;;;;;0.37;0.37;;;5.80;99.90;;;;;;4346183;32;20111;-73
2023/01/09 08:22:53;;;;;;;1.15;1.00;;;5.80;99.90;;;;;;4345084;32;20113;-73
2023/01/09 08:25:19;;;;;;;0.65;0.60;;;5.90;99.90;;;;;;4357254;32;20110;-73
2023/01/09 08:27:45;;;;;;;1.35;1.12;;;5.90;99.90;;;;;;4349089;32;21251;-73
2023/01/09 08:30:11;;;;;;;1.05;0.85;;;5.90;99.90;;;;;;4334962;32;20129;-74
2023/01/09 08:32:38;;;;;;;2.05;1.17;;;6.00;99.90;;;;;;4321005;32;20375;-74
2023/01/09 08:35:04;;;;;;;0.55;0.55;;;6.00;99.90;;;;;;4323048;32;20097;-72
2023/01/09 08:37:30;;;;;;;1.27;0.90;;;6.00;99.90;;;;;;4347083;32;20655;-74
2023/01/09 08:39:55;;;;;;;6.85;1.48;;;6.10;99.90;;;;;;4357042;32;20085;-74
2023/01/09 08:47:12;;;;;;;0.50;0.50;;;6.10;99.90;;;;;;4355134;32;20538;-72
2023/01/09 08:47:56;;;;;;;0.40;0.40;;;6.10;99.90;;;;;;4340669;32;20192;-73
2023/01/09 08:50:21;;;;;;;1.27;0.75;;;6.20;99.90;;;;;;4336369;32;20077;-73
2023/01/09 08:52:47;;;;;;;2.28;0.98;;;6.20;99.90;;;;;;4335526;32;21181;-73
2023/01/09 08:55:13;;;;;;;5.05;1.37;;;6.20;99.90;;;;;;4344252;32;20106;-74
2023/01/09 08:57:48;;;;;;;1.25;0.77;;;6.20;99.90;;;;;;4355527;32;20106;-74
2023/01/09 09:00:14;;;;;;;1.95;1.30;;;6.30;99.90;;;;;;4339136;32;20668;-75
2023/01/09 09:02:39;;;;;;;0.32;0.32;;;6.40;99.90;;;;;;4339630;32;20407;-74
2023/01/09 09:05:05;;;;;;;1.05;0.95;;;6.40;99.90;;;;;;4335368;32;20765;-76
2023/01/09 09:07:32;;;;;;;1.62;1.25;;;6.40;99.90;;;;;;4344188;32;20126;-76
2023/01/09 09:09:57;;;;;;;0.60;0.60;;;6.40;99.90;;;;;;4343491;32;21011;-75
2023/01/09 09:12:23;;;;;;;2.20;1.70;;;6.40;99.90;;;;;;4354168;32;20122;-74
2023/01/09 09:15:48;;;;;;;0.60;0.60;;;6.50;99.90;;;;;;4350360;32;20503;-73
2023/01/09 09:17:34;;;;;;;1.65;0.90;;;6.40;99.90;;;;;;4334949;32;20189;-74
2023/01/09 09:20:00;;;;;;;1.23;1.12;;;6.40;99.90;;;;;;4332282;32;20109;-74
2023/01/09 09:22:26;;;;;;;3.22;1.40;;;6.50;99.90;;;;;;4337827;32;22205;-74
2023/01/09 09:24:51;;;;;;;3.10;1.73;;;6.60;99.90;;;;;;4343375;32;20160;-75
2023/01/09 09:27:17;;;;;;;4.37;1.23;;;6.60;99.90;;;;;;4341813;32;20299;-75
2023/01/09 09:29:42;;;;;;;2.20;1.30;;;6.60;99.90;;;;;;4334386;32;20227;-75
2023/01/09 09:32:08;;;;;;;0.50;0.50;;;6.60;99.90;;;;;;4334519;32;21210;-75
2023/01/09 09:34:33;;;;;;;1.15;1.05;;;6.70;99.90;;;;;;4324035;32;20126;-75
2023/01/09 09:36:59;;;;;;;5.00;1.00;;;6.70;99.90;;;;;;4331294;32;20664;-75
2023/01/09 09:39:24;;;;;;;3.33;1.85;;;6.70;99.90;;;;;;4340044;32;20349;-74
2023/01/09 09:44:54;;;;;;;0.52;0.52;;;6.80;99.90;;;;;;4334576;32;21113;-74
2023/01/09 09:45:45;;;;;;;4.47;1.23;;;6.80;99.90;;;;;;4328513;32;20102;-74
2023/01/09 09:48:36;;;;;;;6.45;1.02;;;6.90;99.90;;;;;;4321830;32;20102;-74
2023/01/09 09:51:29;;;;;;;0.45;0.45;;;6.90;99.90;;;;;;4315701;32;20121;-74
2023/01/09 09:54:01;;;;;;;2.72;0.85;;;7.00;99.90;;;;;;4304541;32;20157;-73
2023/01/09 09:56:32;;;;;;;2.53;1.10;;;7.00;99.90;;;;;;4340002;32;21769;-72
2023/01/09 09:59:00;;;;;;;;;;;7.10;99.90;;;;;;4333067;32;20244;-73
2023/01/09 10:01:37;;;;;;;0.35;0.35;;;7.10;99.90;;;;;;4340302;32;20005;-74
2023/01/09 10:04:09;;;;;;;1.98;1.20;;;7.20;99.90;;;;;;4328552;32;20258;-73
2023/01/09 10:06:42;;;;;;;0.52;0.52;;;7.20;99.90;;;;;;4350880;32;21601;-73
2023/01/09 10:09:48;;;;;;;1.70;1.05;;;7.30;99.90;;;;;;4351666;32;20401;-73
2023/01/09 10:12:38;;;;;;;0.40;0.40;;;7.30;99.90;;;;;;4333275;32;20113;-74
2023/01/09 10:15:24;;;;;;;0.60;0.60;;;7.40;99.90;;;;;;4332028;32;20180;-72
2023/01/09 10:18:31;;;;;;;1.35;1.15;;;7.40;99.90;;;;;;4328371;32;20192;-74
2023/01/09 10:21:01;;;;;;;0.73;0.73;;;7.40;99.90;;;;;;4321561;32;21061;-74
2023/01/09 10:23:43;;;;;;;0.70;0.70;;;7.50;99.90;;;;;;4343729;32;20073;-72
2023/01/09 10:26:12;;;;;;;0.95;0.65;;;7.50;99.90;;;;;;4351979;32;20105;-72
2023/01/09 10:28:49;;;;;;;0.43;0.43;;;7.50;99.90;;;;;;4352418;32;20190;-74
2023/01/09 10:31:24;;;;;;;0.55;0.55;;;7.50;99.90;;;;;;4335649;32;21614;-75
2023/01/09 10:34:11;;;;;;;1.40;1.12;;;7.60;99.90;;;;;;4340661;32;20686;-75
2023/01/09 10:37:04;;;;;;;1.42;0.85;;;7.60;99.90;;;;;;4347287;32;20636;-75
2023/01/09 10:39:51;;;;;;;3.33;0.80;;;7.60;99.90;;;;;;4357045;32;20206;-74
2023/01/09 10:42:22;;;;;;;2.22;1.25;;;7.60;99.90;;;;;;4342448;32;20677;-74
2023/01/09 10:44:56;;;;;;;2.70;1.02;;;7.60;99.90;;;;;;4360628;32;21248;-73
2023/01/09 10:47:36;;;;;;;0.40;0.40;;;7.60;99.90;;;;;;4367548;32;20202;-74
2023/01/09 10:50:17;;;;;;;6.10;1.95;;;7.60;99.90;;;;;;4354141;32;20093;-74
2023/01/09 10:52:43;;;;;;;0.60;0.60;;;7.60;99.90;;;;;;4347112;32;21157;-77
2023/01/09 10:55:46;;;;;;;1.05;0.68;;;7.70;99.90;;;;;;4355211;32;20105;-74
2023/01/09 10:58:16;;;;;;;1.48;0.93;;;7.80;99.90;;;;;;4353586;32;20137;-75
2023/01/09 11:00:42;;;;;;;0.70;0.70;;;7.80;99.90;;;;;;4337311;32;20971;-75
2023/01/09 11:03:14;;;;;;;0.90;0.90;;;7.90;99.90;;;;;;4330139;32;20114;-74
2023/01/09 11:05:41;;;;;;;0.60;0.60;;;7.90;99.90;;;;;;4334209;32;20148;-74
2023/01/09 11:08:11;;;;;;;0.30;0.30;;;8.00;99.90;;;;;;4348536;32;20117;-75
2023/01/09 11:10:47;;;;;;;0.55;0.55;;;8.00;99.90;;;;;;4329526;32;20662;-75
2023/01/09 11:13:19;;;;;;;0.45;0.30;;;8.00;99.90;;;;;;4345830;32;21030;-74
2023/01/09 11:15:45;;;;;;;1.52;0.90;;;8.00;99.90;;;;;;4343133;32;20173;-73
2023/01/09 11:18:19;;;;;;;1.35;0.90;;;8.00;99.90;;;;;;4323457;32;20529;-74
2023/01/09 11:20:44;;;;;;;0.40;0.40;;;8.00;99.90;;;;;;4337795;32;20590;-76
2023/01/09 11:23:31;;;;;;;0.32;0.32;;;8.00;99.90;;;;;;4351556;32;20172;-74
2023/01/09 11:26:00;;;;;;;0.30;0.30;;;8.00;99.90;;;;;;4346109;32;20097;-73
2023/01/09 11:28:26;;;;;;;0.40;0.40;;;8.00;99.90;;;;;;4361298;32;20074;-75
2023/01/09 11:30:54;;;;;;;0.30;0.30;;;7.90;99.90;;;;;;4360212;32;20105;-74
2023/01/09 11:33:23;;;;;;;0.55;0.55;;;7.90;99.90;;;;;;4353647;32;20369;-74
2023/01/09 11:36:14;;;;;;;0.40;0.40;;;8.00;99.90;;;;;;4357129;32;20094;-74
2023/01/09 11:38:58;;;;;;;0.52;0.52;;;8.00;99.90;;;;;;4358218;32;20670;-73
2023/01/09 11:41:28;;;;;;;0.43;0.43;;;8.00;99.90;;;;;;4361911;32;20814;-74
2023/01/09 11:43:57;;;;;;;0.40;0.40;;;8.00;99.90;;;;;;4363596;32;20495;-74
2023/01/09 11:46:33;;;;;;;0.40;0.40;;;8.00;99.90;;;;;;4359303;32;20101;-73
2023/01/09 11:49:00;;;;;;;0.30;0.30;;;8.00;99.90;;;;;;4350779;32;20303;-73
2023/01/09 11:51:29;;;;;;;0.40;0.40;;;8.00;99.90;;;;;;4344029;32;20318;-74
2023/01/09 11:54:19;;;;;;;1.10;0.62;;;7.90;99.90;;;;;;4329674;32;21083;-72
2023/01/09 11:56:46;;;;;;;0.32;0.32;;;8.00;99.90;;;;;;4331132;32;20722;-72
2023/01/09 11:59:15;;;;;;;0.37;0.37;;;7.90;99.90;;;;;;4339108;32;20734;-73
2023/01/09 12:02:00;;;;;;;0.40;0.40;;;7.90;99.90;;;;;;4337212;32;20709;-73
2023/01/09 12:04:37;;;;;;;0.32;0.32;;;8.00;99.90;;;;;;4344407;32;20094;-75
2023/01/09 12:07:15;;;;;;;0.32;0.32;;;8.00;99.90;;;;;;4341505;32;20234;-74
2023/01/09 12:10:24;;;;;;;0.40;0.40;;;8.00;99.90;;;;;;4327500;32;20435;-74
2023/01/09 12:13:11;;;;;;;0.30;0.30;;;8.20;99.90;;;;;;4330272;32;20247;-73
2023/01/09 12:16:01;;;;;;;0.30;0.30;;;8.70;99.90;;;;;;4348634;32;20093;-73
2023/01/09 12:18:48;;;;;;;0.50;0.50;;;9.30;99.90;;;;;;4332181;32;20889;-73
2023/01/09 12:21:25;;;;;;;0.47;0.47;;;9.80;99.90;;;;;;4329008;32;20206;-73
2023/01/09 12:24:15;;;;;;;0.85;0.37;;;10.30;99.90;;;;;;4338384;32;20110;-73
2023/01/09 12:26:55;;;;;;;1.08;0.70;;;10.40;99.90;;;;;;4323491;32;20257;-74
2023/01/09 12:29:38;;;;;;;0.65;0.65;;;10.30;99.90;;;;;;4347888;32;20168;-75
2023/01/09 12:32:19;;;;;;;0.43;0.43;;;9.90;99.90;;;;;;4330380;32;20636;-73
2023/01/09 12:34:59;;;;;;;0.55;0.55;;;9.60;99.90;;;;;;4339199;32;20518;-75
2023/01/09 12:37:52;;;;;;;3.60;0.93;;;9.30;99.90;;;;;;4344368;32;20101;-73
2023/01/09 12:40:46;;;;;;;0.50;0.50;;;9.10;99.90;;;;;;4321445;32;20129;-73
2023/01/09 12:43:47;;;;;;;0.50;0.50;;;9.00;99.90;;;;;;4334300;32;20468;-73
2023/01/09 12:46:19;;;;;;;0.40;0.40;;;8.90;99.90;;;;;;4328695;32;20109;-72
2023/01/09 12:49:13;;;;;;;7.78;0.77;;;8.80;99.90;;;;;;4332081;32;20193;-73
2023/01/09 12:51:46;;;;;;;0.30;0.30;;;8.90;99.90;;;;;;4324266;32;21060;-76
2023/01/09 12:54:41;;;;;;;0.25;0.25;;;8.90;99.90;;;;;;4355147;32;21087;-73
2023/01/09 12:57:19;;;;;;;0.40;0.40;;;9.00;99.90;;;;;;4343366;32;20102;-74
2023/01/09 12:59:51;;;;;;;0.45;0.45;;;9.30;99.90;;;;;;4350041;32;20828;-73
2023/01/09 13:02:32;;;;;;;0.50;0.50;;;9.30;99.90;;;;;;4351719;32;20400;-73
2023/01/09 13:05:05;;;;;;;0.30;0.30;;;9.30;99.90;;;;;;4350986;32;20155;-73
2023/01/09 13:07:41;;;;;;;0.30;0.30;;;9.50;99.90;;;;;;4353452;32;20464;-74
2023/01/09 13:10:17;;;;;;;0.40;0.40;;;9.90;99.90;;;;;;4360357;32;20128;-76
2023/01/09 13:12:45;;;;;;;0.50;0.50;;;10.10;99.90;;;;;;4344917;32;20082;-74
2023/01/09 13:15:28;;;;;;;0.37;0.37;;;10.30;99.90;;;;;;4364304;32;20837;-74
2023/01/09 13:18:03;;;;;;;0.75;0.75;;;10.30;99.90;;;;;;4360339;32;20090;-74
2023/01/09 13:20:37;;;;;;;0.32;0.32;;;10.30;99.90;;;;;;4358445;32;20561;-75